Time;durP1;ratioP1;P1;durP2;ratioP2;P2;SDS_P1;SDS_P2;PMS_P1;PMS_P2;Temp;Humidity;BMP_temperature;BMP_pressure;BME280_temperature;BME280_humidity;BME280_pressure;Samples;Min_cycle;Max_cycle;Signal;HPM_P1;HPM_P2
2023/03/02 05:39:29;;;;;;;;;;;;;;;;;;5804404;23;19930;-85
2023/03/02 05:41:54;;;;;;;;;;;;;;;;;;4985455;28;19930;-84
2023/03/02 05:44:20;;;;;;;;;;;;;;;;;;4984180;28;19918;-82
2023/03/02 05:46:46;;;;;;;;;;;;;;;;;;4998053;28;20287;-82
2023/03/02 05:49:11;;;;;;;;;;;;;;;;;;4987939;28;20015;-83
2023/03/02 05:51:37;;;;;;;;;;;;;;;;;;4977633;28;19922;-83
2023/03/02 05:54:02;;;;;;;;;;;;;;;;;;4978176;28;19914;-83
2023/03/02 05:56:27;;;;;;;;;;;;;;;;;;4978610;28;20023;-83
2023/03/02 05:58:53;;;;;;;;;;;;;;;;;;4978542;28;20013;-82
2023/03/02 06:01:18;;;;;;;;;;;;;;;;;;4978346;28;19914;-85
2023/03/02 06:03:43;;;;;;;;;;;;;;;;;;4978296;28;20400;-84
2023/03/02 06:06:12;;;;;;;;;;;;;;;;;;4978212;28;19969;-85
2023/03/02 06:08:39;;;;;;;;;;;;;;;;;;4978271;28;19918;-85
2023/03/02 06:11:05;;;;;;;;;;;;;;;;;;4978329;28;19917;-85
2023/03/02 06:13:30;;;;;;;;;;;;;;;;;;4960974;28;19925;-85
2023/03/02 06:15:55;;;;;;;;;;;;;;;;;;4977972;28;20009;-86
2023/03/02 06:18:21;;;;;;;;;;;;;;;;;;4978207;28;19918;-86
2023/03/02 06:20:46;;;;;;;;;;;;;;;;;;4960663;28;20347;-86
2023/03/02 06:23:11;;;;;;;;;;;;;;;;;;4960724;28;20377;-86
2023/03/02 06:25:40;;;;;;;;;;;;;;;;;;4977792;28;20016;-86
2023/03/02 06:28:05;;;;;;;;;;;;;;;;;;4960532;28;19918;-86
2023/03/02 06:30:30;;;;;;;;;;;;;;;;;;4977720;28;19925;-86
2023/03/02 06:32:56;;;;;;;;;;;;;;;;;;4978105;28;19994;-86
2023/03/02 06:35:22;;;;;;;;;;;;;;;;;;4977671;28;19922;-86
2023/03/02 06:37:48;;;;;;;;;;;;;;;;;;4977671;28;19925;-86
2023/03/02 06:40:13;;;;;;;;;;;;;;;;;;4977679;28;19922;-87
2023/03/02 06:42:39;;;;;;;;;;;;;;;;;;4976955;28;19964;-86
2023/03/02 06:45:05;;;;;;;;;;;;;;;;;;4960187;28;20274;-86
2023/03/02 06:47:32;;;;;;;;;;;;;;;;;;4960107;28;19973;-86
2023/03/02 06:49:57;;;;;;;;;;;;;;;;;;4977425;28;20391;-86
2023/03/02 06:52:22;;;;;;;;;;;;;;;;;;4960019;28;19918;-87
2023/03/02 06:54:48;;;;;;;;;;;;;;;;;;4977364;28;20288;-85
2023/03/02 06:57:13;;;;;;;;;;;;;;;;;;4960115;28;19925;-87
2023/03/02 06:59:38;;;;;;;;;;;;;;;;;;4977359;28;19918;-86
2023/03/02 07:02:04;;;;;;;;;;;;;;;;;;4959918;28;19922;-86
2023/03/02 07:04:29;;;;;;;;;;;;;;;;;;4977581;28;19918;-87
2023/03/02 07:06:54;;;;;;;;;;;;;;;;;;4977370;28;19918;-87
2023/03/02 07:09:20;;;;;;;;;;;;;;;;;;4959746;28;20376;-86
2023/03/02 07:11:45;;;;;;;;;;;;;;;;;;4977515;28;20012;-86
2023/03/02 07:14:10;;;;;;;;;;;;;;;;;;4960225;28;20429;-87
2023/03/02 07:16:36;;;;;;;;;;;;;;;;;;4977249;28;19922;-86
2023/03/02 07:19:01;;;;;;;;;;;;;;;;;;4959785;28;20258;-86
2023/03/02 07:21:26;;;;;;;;;;;;;;;;;;4977091;28;19922;-87
2023/03/02 07:23:52;;;;;;;;;;;;;;;;;;4959854;28;19922;-87
2023/03/02 07:26:17;;;;;;;;;;;;;;;;;;4976997;28;19918;-86
2023/03/02 07:28:43;;;;;;;;;;;;;;;;;;4977520;28;19918;-88
2023/03/02 07:31:09;;;;;;;;;;;;;;;;;;4959417;28;20016;-90
2023/03/02 07:33:35;;;;;;;;;;;;;;;;;;4959634;28;19976;-87
2023/03/02 07:36:00;;;;;;;;;;;;;;;;;;4976824;28;19962;-87
2023/03/02 07:38:26;;;;;;;;;;;;;;;;;;4959355;28;20025;-88
2023/03/02 07:40:51;;;;;;;;;;;;;;;;;;4959034;28;19922;-87
2023/03/02 07:43:16;;;;;;;;;;;;;;;;;;4976715;28;19929;-87
2023/03/02 07:45:42;;;;;;;;;;;;;;;;;;4959127;28;20004;-87
2023/03/02 07:48:07;;;;;;;;;;;;;;;;;;4976497;28;19925;-87
2023/03/02 07:50:33;;;;;;;;;;;;;;;;;;4958986;28;20284;-88
2023/03/02 07:52:58;;;;;;;;;;;;;;;;;;4975982;28;19988;-88
2023/03/02 07:55:23;;;;;;;;;;;;;;;;;;4975868;28;19918;-88
2023/03/02 07:57:49;;;;;;;;;;;;;;;;;;4959057;28;19925;-88
2023/03/02 08:00:14;;;;;;;;;;;;;;;;;;4976389;28;19925;-87
2023/03/02 08:02:40;;;;;;;;;;;;;;;;;;4958986;28;19925;-88
2023/03/02 08:05:06;;;;;;;;;;;;;;;;;;4960127;28;20285;-88
2023/03/02 08:07:32;;;;;;;;;;;;;;;;;;4960639;28;19945;-88
2023/03/02 08:09:59;;;;;;;;;;;;;;;;;;4976597;28;19965;-87
2023/03/02 08:12:25;;;;;;;;;;;;;;;;;;4976262;28;19918;-87
2023/03/02 08:14:50;;;;;;;;;;;;;;;;;;4959254;28;19918;-88
2023/03/02 08:17:16;;;;;;;;;;;;;;;;;;4976231;28;20333;-88
2023/03/02 08:19:41;;;;;;;;;;;;;;;;;;4958917;28;19986;-88
2023/03/02 08:22:06;;;;;;;;;;;;;;;;;;4958790;28;20399;-87
2023/03/02 08:24:32;;;;;;;;;;;;;;;;;;4958711;28;19918;-88
2023/03/02 08:27:01;;;;;;;;;;;;;;;;;;4975948;28;19956;-88
2023/03/02 08:29:26;;;;;;;;;;;;;;;;;;4976168;28;19922;-87
2023/03/02 08:31:52;;;;;;;;;;;;;;;;;;4958349;28;20377;-89
2023/03/02 08:34:17;;;;;;;;;;;;;;;;;;4958588;28;20001;-88
2023/03/02 08:36:43;;;;;;;;;;;;;;;;;;4975749;28;20014;-88
2023/03/02 08:39:08;;;;;;;;;;;;;;;;;;4976007;28;19933;-88
2023/03/02 08:41:34;;;;;;;;;;;;;;;;;;4958618;28;19918;-88
2023/03/02 08:43:59;;;;;;;;;;;;;;;;;;4975734;28;19918;-89
2023/03/02 08:46:24;;;;;;;;;;;;;;;;;;4958152;28;20361;-87
2023/03/02 10:46:52;;;;;;;;;;;;;;;;;;4969715;28;20009;-93
2023/03/02 10:49:23;;;;;;;;;;;;;;;;;;4958436;28;19927;-92
2023/03/02 10:51:54;;;;;;;;;;;;;;;;;;4958397;29;19961;-92
2023/03/02 10:54:19;;;;;;;;;;;;;;;;;;4957862;28;20412;-92
2023/03/02 10:56:49;;;;;;;;;;;;;;;;;;4957882;29;19919;-95
2023/03/02 10:59:23;;;;;;;;;;;;;;;;;;4958293;29;20381;-92
2023/03/02 11:01:57;;;;;;;;;;;;;;;;;;4957737;29;19919;-94
2023/03/02 11:04:22;;;;;;;;;;;;;;;;;;4957631;28;19926;-93
2023/03/02 11:06:47;;;;;;;;;;;;;;;;;;4958945;28;19919;-91
2023/03/02 11:09:13;;;;;;;;;;;;;;;;;;4960913;28;19923;-93
2023/03/02 11:11:47;;;;;;;;;;;;;;;;;;4958533;29;20285;-90
2023/03/02 11:14:16;;;;;;;;;;;;;;;;;;4961308;28;19960;-89
2023/03/02 11:16:41;;;;;;;;;;;;;;;;;;4959302;28;20384;-94
2023/03/02 11:19:16;;;;;;;;;;;;;;;;;;4958259;28;19929;-92
2023/03/02 11:21:53;;;;;;;;;;;;;;;;;;4957487;29;19918;-93
2023/03/02 11:24:41;;;;;;;;;;;;;;;;;;4962116;28;19918;-92
2023/03/02 11:27:21;;;;;;;;;;;;;;;;;;4955744;29;19925;-94
2023/03/02 11:29:58;;;;;;;;;;;;;;;;;;4958476;28;19922;-93
2023/03/02 11:32:49;;;;;;;;;;;;;;;;;;4957913;29;19918;-92
2023/03/02 11:35:21;;;;;;;;;;;;;;;;;;4950023;29;19925;-92
2023/03/02 11:37:51;;;;;;;;;;;;;;;;;;4957676;29;20365;-92
2023/03/02 11:40:20;;;;;;;;;;;;;;;;;;4957212;29;20431;-93
2023/03/02 11:42:45;;;;;;;;;;;;;;;;;;4958768;29;19923;-92
2023/03/02 11:45:35;;;;;;;;;;;;;;;;;;4957402;29;19926;-92
2023/03/02 11:48:18;;;;;;;;;;;;;;;;;;4970580;28;19961;-94
2023/03/02 11:50:57;;;;;;;;;;;;;;;;;;4977154;28;19918;-93
2023/03/02 11:53:28;;;;;;;;;;;;;;;;;;4959814;28;19918;-93
2023/03/02 11:55:54;;;;;;;;;;;;;;;;;;4960087;28;19921;-93
2023/03/02 11:58:20;;;;;;;;;;;;;;;;;;4959707;28;19918;-92
2023/03/02 12:00:47;;;;;;;;;;;;;;;;;;4976939;28;20396;-91
2023/03/02 12:03:15;;;;;;;;;;;;;;;;;;4959471;28;19918;-92
2023/03/02 12:05:42;;;;;;;;;;;;;;;;;;4959703;28;19922;-93
2023/03/02 12:08:19;;;;;;;;;;;;;;;;;;4962044;28;19922;-89
2023/03/02 12:11:05;;;;;;;;;;;;;;;;;;4979123;28;19926;-90
2023/03/02 12:13:31;;;;;;;;;;;;;;;;;;4975988;28;19974;-89
2023/03/02 12:15:57;;;;;;;;;;;;;;;;;;4976578;28;19972;-89
2023/03/02 12:18:23;;;;;;;;;;;;;;;;;;4976324;28;19918;-94
2023/03/02 12:20:57;;;;;;;;;;;;;;;;;;4976440;28;19918;-89
2023/03/02 12:23:24;;;;;;;;;;;;;;;;;;4976120;28;19925;-89
2023/03/02 12:25:59;;;;;;;;;;;;;;;;;;4975786;28;19919;-88
2023/03/02 12:28:26;;;;;;;;;;;;;;;;;;4976101;28;19925;-94
2023/03/02 12:30:55;;;;;;;;;;;;;;;;;;4976142;28;19918;-90
2023/03/02 12:33:20;;;;;;;;;;;;;;;;;;4958981;28;19922;-91
2023/03/02 12:35:47;;;;;;;;;;;;;;;;;;4958960;28;19950;-91
2023/03/02 12:38:15;;;;;;;;;;;;;;;;;;4959197;28;19965;-93
2023/03/02 12:40:52;;;;;;;;;;;;;;;;;;4975801;28;19961;-92
2023/03/02 12:43:30;;;;;;;;;;;;;;;;;;4958758;28;19929;-93
2023/03/02 18:40:18;;;;;;;;;;;;;;;;;;4987876;28;20435;-92
